Time;durP1;ratioP1;P1;durP2;ratioP2;P2;SDS_P1;SDS_P2;PMS_P1;PMS_P2;Temp;Humidity;BMP_temperature;BMP_pressure;BME280_temperature;BME280_humidity;BME280_pressure;Samples;Min_cycle;Max_cycle;Signal;HPM_P1;HPM_P2
2023/04/12 00:01:40;;;;;;;5.65;1.98;;;;;;;;;;4934677;28;20059;-67
2023/04/12 00:04:06;;;;;;;7.43;1.80;;;;;;;;;;4937905;28;20047;-69
2023/04/12 00:06:33;;;;;;;6.93;1.60;;;;;;;;;;4926781;29;20062;-70
2023/04/12 00:09:00;;;;;;;10.80;2.45;;;;;;;;;;4946363;28;20055;-67
2023/04/12 00:11:27;;;;;;;8.55;1.60;;;;;;;;;;4941789;28;20500;-68
2023/04/12 00:13:54;;;;;;;9.18;2.17;;;;;;;;;;4942235;28;20051;-68
2023/04/12 00:16:21;;;;;;;8.68;1.65;;;;;;;;;;4955572;28;20051;-68
2023/04/12 00:18:47;;;;;;;6.72;1.65;;;;;;;;;;4931805;28;20081;-68
2023/04/12 00:21:18;;;;;;;7.35;2.00;;;;;;;;;;4944481;29;20071;-68
2023/04/12 00:23:45;;;;;;;6.25;1.63;;;;;;;;;;4939923;28;20054;-69
2023/04/12 00:26:12;;;;;;;9.88;2.03;;;;;;;;;;4943311;28;20043;-68
2023/04/12 00:28:40;;;;;;;11.02;1.77;;;;;;;;;;4938929;28;20043;-67
2023/04/12 00:31:06;;;;;;;9.52;2.70;;;;;;;;;;4938330;28;20057;-68
2023/04/12 00:33:34;;;;;;;9.68;2.22;;;;;;;;;;4938955;28;20058;-68
2023/04/12 00:36:00;;;;;;;7.28;1.80;;;;;;;;;;4942241;28;20098;-69
2023/04/12 00:38:26;;;;;;;7.45;1.80;;;;;;;;;;4937554;28;20062;-68
2023/04/12 00:40:53;;;;;;;8.20;1.80;;;;;;;;;;4936932;29;20365;-69
2023/04/12 00:43:19;;;;;;;6.85;1.55;;;;;;;;;;4945289;28;20067;-69
2023/04/12 00:45:46;;;;;;;11.30;1.85;;;;;;;;;;4943595;28;20069;-68
2023/04/12 00:48:12;;;;;;;6.38;1.98;;;;;;;;;;4943825;28;20086;-70
2023/04/12 00:50:43;;;;;;;6.85;1.65;;;;;;;;;;4944032;28;20065;-69
2023/04/12 00:53:12;;;;;;;6.28;1.58;;;;;;;;;;4938328;28;20133;-68
2023/04/12 00:55:44;;;;;;;3.28;1.30;;;;;;;;;;4946782;28;20047;-68
2023/04/12 00:58:12;;;;;;;5.78;1.38;;;;;;;;;;4944641;28;20117;-68
2023/04/12 01:00:39;;;;;;;4.35;1.40;;;;;;;;;;4944146;28;20095;-68
2023/04/12 01:03:07;;;;;;;4.93;1.30;;;;;;;;;;4927062;29;20111;-68
2023/04/12 01:05:39;;;;;;;7.70;2.33;;;;;;;;;;4944056;28;20118;-68
2023/04/12 01:08:10;;;;;;;4.10;1.23;;;;;;;;;;4927903;29;20138;-69
2023/04/12 01:10:37;;;;;;;4.18;1.20;;;;;;;;;;4931113;28;20059;-68
2023/04/12 01:13:15;;;;;;;5.35;1.35;;;;;;;;;;4943642;28;20077;-68
2023/04/12 01:15:47;;;;;;;7.43;1.30;;;;;;;;;;4943916;28;20055;-68
2023/04/12 01:18:18;;;;;;;4.68;1.27;;;;;;;;;;4936970;28;20497;-68
2023/04/12 01:20:56;;;;;;;5.25;1.30;;;;;;;;;;4942139;28;20432;-68
2023/04/12 01:23:33;;;;;;;6.55;1.25;;;;;;;;;;4927335;29;20540;-68
2023/04/12 01:26:20;;;;;;;4.22;0.90;;;;;;;;;;4945423;28;20384;-68
2023/04/12 01:28:49;;;;;;;3.33;1.00;;;;;;;;;;4942920;28;20106;-68
2023/04/12 01:31:16;;;;;;;2.13;1.00;;;;;;;;;;4931221;28;20130;-67
2023/04/12 01:33:44;;;;;;;4.85;1.40;;;;;;;;;;4935118;28;20051;-70
2023/04/12 01:36:12;;;;;;;5.72;1.00;;;;;;;;;;4942860;29;20505;-67
2023/04/12 01:38:40;;;;;;;7.78;1.40;;;;;;;;;;4940713;28;20127;-69
2023/04/12 01:41:07;;;;;;;5.05;1.40;;;;;;;;;;4943950;28;20043;-70
2023/04/12 01:43:38;;;;;;;10.13;1.35;;;;;;;;;;4943900;28;20062;-69
2023/04/12 01:46:05;;;;;;;6.93;1.42;;;;;;;;;;4947763;28;20054;-68
2023/04/12 01:48:31;;;;;;;7.78;1.70;;;;;;;;;;4942354;29;20059;-69
2023/04/12 01:51:14;;;;;;;6.45;1.45;;;;;;;;;;4953874;28;20066;-68
2023/04/12 01:53:53;;;;;;;5.43;1.40;;;;;;;;;;4939647;28;20048;-68
2023/04/12 01:56:19;;;;;;;;;;;;;;;;;;4926839;29;20086;-68
2023/04/12 01:58:47;;;;;;;8.15;1.80;;;;;;;;;;4931950;28;20291;-68
2023/04/12 02:01:14;;;;;;;5.90;1.73;;;;;;;;;;4928714;28;20535;-69
2023/04/12 02:03:41;;;;;;;7.55;1.55;;;;;;;;;;4941173;28;20047;-68
2023/04/12 02:06:08;;;;;;;9.48;1.30;;;;;;;;;;4935824;28;20409;-68
2023/04/12 02:08:35;;;;;;;7.18;1.52;;;;;;;;;;4947199;28;20416;-69
2023/04/12 02:11:09;;;;;;;6.25;1.55;;;;;;;;;;4946322;28;20047;-67
2023/04/12 02:13:35;;;;;;;5.95;1.55;;;;;;;;;;4945588;28;20051;-68
2023/04/12 02:16:02;;;;;;;5.82;1.67;;;;;;;;;;4945818;28;20095;-73
2023/04/12 02:18:29;;;;;;;4.05;1.20;;;;;;;;;;4944303;29;20055;-73
2023/04/12 02:20:55;;;;;;;4.30;1.40;;;;;;;;;;4929638;29;20039;-74
2023/04/12 02:23:21;;;;;;;5.18;1.20;;;;;;;;;;4947485;28;20055;-75
2023/04/12 02:25:48;;;;;;;3.00;1.55;;;;;;;;;;4943676;28;20052;-75
2023/04/12 02:28:14;;;;;;;6.18;1.48;;;;;;;;;;4948778;29;20480;-75
2023/04/12 02:30:40;;;;;;;3.67;1.27;;;;;;;;;;4939403;28;20048;-75
2023/04/12 02:33:08;;;;;;;3.05;1.38;;;;;;;;;;4931083;29;20050;-73
2023/04/12 02:35:35;;;;;;;4.32;1.00;;;;;;;;;;4941651;28;20475;-74
2023/04/12 02:38:07;;;;;;;5.72;1.50;;;;;;;;;;4946841;28;20082;-75
2023/04/12 02:40:37;;;;;;;5.43;1.75;;;;;;;;;;4929735;29;20476;-75
2023/04/12 02:43:03;;;;;;;7.70;1.40;;;;;;;;;;4945500;29;20046;-75
2023/04/12 02:45:30;;;;;;;4.07;1.02;;;;;;;;;;4949634;28;20062;-72
2023/04/12 02:47:56;;;;;;;6.53;1.23;;;;;;;;;;4936819;28;20435;-75
2023/04/12 02:50:22;;;;;;;4.43;1.27;;;;;;;;;;4935628;28;20051;-73
2023/04/12 02:52:49;;;;;;;3.97;1.33;;;;;;;;;;4937651;28;20166;-74
2023/04/12 02:55:16;;;;;;;3.65;1.10;;;;;;;;;;4934106;29;20051;-74
2023/04/12 02:57:46;;;;;;;5.03;1.10;;;;;;;;;;4942136;29;20364;-76
2023/04/12 03:00:14;;;;;;;5.57;1.52;;;;;;;;;;4947387;28;20161;-75
2023/04/12 03:02:40;;;;;;;5.27;1.17;;;;;;;;;;4942135;28;20057;-73
2023/04/12 03:05:07;;;;;;;3.90;1.17;;;;;;;;;;4930231;28;20125;-74
2023/04/12 03:07:34;;;;;;;3.03;1.40;;;;;;;;;;4941913;28;20520;-73
2023/04/12 03:10:01;;;;;;;4.90;0.95;;;;;;;;;;4941063;28;20062;-75
2023/04/12 03:12:27;;;;;;;5.60;1.20;;;;;;;;;;4943629;28;20064;-75
2023/04/12 03:14:54;;;;;;;3.35;1.00;;;;;;;;;;4937178;28;20468;-76
2023/04/12 03:17:20;;;;;;;6.00;1.40;;;;;;;;;;4943242;28;20079;-75
2023/04/12 03:19:47;;;;;;;3.13;1.15;;;;;;;;;;4940673;28;20047;-75
2023/04/12 03:22:14;;;;;;;3.80;1.30;;;;;;;;;;4943068;28;20048;-74
2023/04/12 03:24:41;;;;;;;5.43;1.42;;;;;;;;;;4945827;28;20077;-75
2023/04/12 03:27:08;;;;;;;4.30;1.20;;;;;;;;;;4946550;29;20047;-75
2023/04/12 03:29:34;;;;;;;6.05;1.60;;;;;;;;;;4935412;28;20056;-74
2023/04/12 03:32:00;;;;;;;3.90;1.42;;;;;;;;;;4936424;28;20051;-73
2023/04/12 03:34:33;;;;;;;5.35;1.48;;;;;;;;;;4938637;28;20064;-75
2023/04/12 03:37:00;;;;;;;5.65;1.40;;;;;;;;;;4943503;28;20102;-74
2023/04/12 03:39:27;;;;;;;5.28;1.60;;;;;;;;;;4941849;28;20341;-75
2023/04/12 03:41:54;;;;;;;7.43;1.33;;;;;;;;;;4928510;29;20051;-74
2023/04/12 03:44:21;;;;;;;4.05;1.45;;;;;;;;;;4946539;29;20552;-73
2023/04/12 03:46:47;;;;;;;4.75;1.40;;;;;;;;;;4942862;28;20049;-74
2023/04/12 03:49:15;;;;;;;3.58;1.23;;;;;;;;;;4946199;28;20058;-75
2023/04/12 03:51:42;;;;;;;7.28;1.48;;;;;;;;;;4945774;28;20557;-74
2023/04/12 03:54:09;;;;;;;3.53;1.20;;;;;;;;;;4946723;28;20074;-73
2023/04/12 03:56:37;;;;;;;4.10;1.13;;;;;;;;;;4943722;28;20142;-76
2023/04/12 03:59:04;;;;;;;3.08;1.10;;;;;;;;;;4945120;28;20069;-75
2023/04/12 04:01:31;;;;;;;6.28;1.70;;;;;;;;;;4946017;28;20051;-75
2023/04/12 04:03:57;;;;;;;5.07;1.40;;;;;;;;;;4945482;28;20047;-74
2023/04/12 04:06:24;;;;;;;2.88;1.30;;;;;;;;;;4952854;28;20346;-73
2023/04/12 04:08:51;;;;;;;3.33;1.15;;;;;;;;;;4946144;28;20051;-75
2023/04/12 04:11:17;;;;;;;7.78;1.55;;;;;;;;;;4945448;28;20357;-75
2023/04/12 04:13:45;;;;;;;3.28;1.00;;;;;;;;;;4945140;29;20079;-75
2023/04/12 04:16:12;;;;;;;3.30;1.20;;;;;;;;;;4946815;28;20062;-74
2023/04/12 04:18:38;;;;;;;5.53;1.60;;;;;;;;;;4928223;29;20055;-75
2023/04/12 04:21:06;;;;;;;6.22;1.38;;;;;;;;;;4944156;28;20083;-75
2023/04/12 04:23:37;;;;;;;5.57;1.20;;;;;;;;;;4945872;29;20134;-74
2023/04/12 04:26:10;;;;;;;2.67;1.20;;;;;;;;;;4944445;28;20047;-74
2023/04/12 04:28:37;;;;;;;4.97;1.40;;;;;;;;;;4924352;29;20062;-72
2023/04/12 04:31:05;;;;;;;3.45;1.33;;;;;;;;;;4938413;28;20573;-74
2023/04/12 04:33:32;;;;;;;5.55;1.55;;;;;;;;;;4934303;29;20056;-74
2023/04/12 04:35:58;;;;;;;4.05;1.50;;;;;;;;;;4944731;28;20047;-75
2023/04/12 04:38:25;;;;;;;4.18;1.42;;;;;;;;;;4933134;29;20060;-74
2023/04/12 04:40:54;;;;;;;2.03;0.95;;;;;;;;;;4934628;28;20051;-74
2023/04/12 04:43:20;;;;;;;8.48;1.60;;;;;;;;;;4936238;29;20521;-72
2023/04/12 04:45:48;;;;;;;2.95;1.00;;;;;;;;;;4942133;28;20122;-76
2023/04/12 04:48:15;;;;;;;4.35;1.55;;;;;;;;;;4937830;28;20083;-74
2023/04/12 04:50:42;;;;;;;5.13;1.63;;;;;;;;;;4944067;28;20082;-74
2023/04/12 04:53:08;;;;;;;2.88;1.10;;;;;;;;;;4938863;28;20044;-73
2023/04/12 04:55:35;;;;;;;4.18;1.40;;;;;;;;;;4942737;28;20072;-72
2023/04/12 04:58:01;;;;;;;4.88;1.20;;;;;;;;;;4941442;28;20051;-74
2023/04/12 05:00:27;;;;;;;4.93;1.40;;;;;;;;;;4917817;28;20055;-74
2023/04/12 05:02:54;;;;;;;3.03;1.52;;;;;;;;;;4934760;29;20058;-74
2023/04/12 05:05:22;;;;;;;2.33;1.10;;;;;;;;;;4941200;28;20390;-73
2023/04/12 05:07:48;;;;;;;2.97;1.37;;;;;;;;;;4935140;28;20497;-72
2023/04/12 05:10:15;;;;;;;6.63;1.40;;;;;;;;;;4944419;28;20043;-73
2023/04/12 05:12:41;;;;;;;4.30;1.67;;;;;;;;;;4943661;29;20158;-71
2023/04/12 05:15:07;;;;;;;3.42;1.20;;;;;;;;;;4923953;29;20130;-74
2023/04/12 05:17:37;;;;;;;3.85;1.35;;;;;;;;;;4937478;28;20647;-74
2023/04/12 05:20:07;;;;;;;3.67;1.50;;;;;;;;;;4936560;28;20526;-74
2023/04/12 05:22:34;;;;;;;2.20;1.15;;;;;;;;;;4938688;28;20484;-73
2023/04/12 05:25:01;;;;;;;3.50;1.40;;;;;;;;;;4937974;28;20067;-73
2023/04/12 05:27:28;;;;;;;5.07;1.50;;;;;;;;;;4927114;29;20059;-75
2023/04/12 05:29:55;;;;;;;2.40;1.27;;;;;;;;;;4925114;29;20054;-72
2023/04/12 05:32:23;;;;;;;2.17;1.40;;;;;;;;;;4935257;29;20128;-73
2023/04/12 05:34:49;;;;;;;4.80;1.80;;;;;;;;;;4941055;28;20122;-74
2023/04/12 05:37:16;;;;;;;5.10;1.50;;;;;;;;;;4939423;28;20518;-73
2023/04/12 05:39:42;;;;;;;3.83;1.50;;;;;;;;;;4939710;28;20062;-74
2023/04/12 05:42:08;;;;;;;4.18;1.40;;;;;;;;;;4939509;29;20105;-72
2023/04/12 05:44:38;;;;;;;3.92;1.33;;;;;;;;;;4938324;28;20098;-72
2023/04/12 05:47:04;;;;;;;5.50;1.55;;;;;;;;;;4933667;28;20544;-73
2023/04/12 05:49:31;;;;;;;2.03;1.35;;;;;;;;;;4938958;28;20480;-74
2023/04/12 05:51:57;;;;;;;3.42;1.27;;;;;;;;;;4923161;29;20576;-73
2023/04/12 05:54:24;;;;;;;3.15;1.45;;;;;;;;;;4939015;28;20165;-73
2023/04/12 05:56:51;;;;;;;2.35;1.33;;;;;;;;;;4923742;29;20492;-74
2023/04/12 05:59:18;;;;;;;4.50;1.60;;;;;;;;;;4935439;28;20098;-74
2023/04/12 06:01:45;;;;;;;6.68;1.40;;;;;;;;;;4941156;28;20138;-73
2023/04/12 06:04:11;;;;;;;5.07;1.92;;;;;;;;;;4931097;29;20044;-73
2023/04/12 06:06:38;;;;;;;2.90;1.50;;;;;;;;;;4939964;28;20468;-73
2023/04/12 06:09:04;;;;;;;2.20;1.45;;;;;;;;;;4936656;28;20051;-74
2023/04/12 06:11:32;;;;;;;3.63;1.60;;;;;;;;;;4926477;29;20090;-75
2023/04/12 06:13:59;;;;;;;2.30;1.30;;;;;;;;;;4935840;29;20296;-74
2023/04/12 06:16:26;;;;;;;2.92;1.48;;;;;;;;;;4943422;28;20531;-74
2023/04/12 06:18:52;;;;;;;2.83;1.20;;;;;;;;;;4943911;28;20059;-73
2023/04/12 06:21:19;;;;;;;3.95;1.10;;;;;;;;;;4943762;28;20412;-73
2023/04/12 06:23:45;;;;;;;2.78;1.70;;;;;;;;;;4932179;28;20123;-74
2023/04/12 06:26:12;;;;;;;3.92;1.73;;;;;;;;;;4937228;28;20054;-72
2023/04/12 06:28:38;;;;;;;3.42;1.35;;;;;;;;;;4933482;29;20043;-73
2023/04/12 06:31:05;;;;;;;2.90;1.45;;;;;;;;;;4938273;28;20075;-72
2023/04/12 06:33:32;;;;;;;3.00;1.38;;;;;;;;;;4939926;29;20130;-73
2023/04/12 06:35:59;;;;;;;2.95;1.45;;;;;;;;;;4942100;28;20142;-73
2023/04/12 06:38:25;;;;;;;3.75;2.10;;;;;;;;;;4938406;28;20058;-72
2023/04/12 06:40:52;;;;;;;3.75;1.58;;;;;;;;;;4944852;28;20057;-74
2023/04/12 06:43:19;;;;;;;2.08;1.40;;;;;;;;;;4944870;29;20401;-74
2023/04/12 06:45:45;;;;;;;3.65;1.13;;;;;;;;;;4928374;29;20047;-73
2023/04/12 06:48:12;;;;;;;3.83;2.20;;;;;;;;;;4925396;29;20524;-74
2023/04/12 06:50:38;;;;;;;4.13;1.77;;;;;;;;;;4933847;28;20151;-74
2023/04/12 06:53:05;;;;;;;3.65;1.67;;;;;;;;;;4933747;29;20047;-74
2023/04/12 06:55:32;;;;;;;2.28;1.27;;;;;;;;;;4941445;28;20481;-75
2023/04/12 06:57:58;;;;;;;3.97;1.50;;;;;;;;;;4941767;28;20073;-74
2023/04/12 07:00:24;;;;;;;2.85;1.30;;;;;;;;;;4942595;28;20059;-73
2023/04/12 07:02:51;;;;;;;6.28;1.52;;;;;;;;;;4935321;29;20078;-75
2023/04/12 07:05:18;;;;;;;4.07;1.60;;;;;;;;;;4941682;28;20501;-74
2023/04/12 07:07:44;;;;;;;1.20;1.10;;;;;;;;;;4938457;28;20063;-74
2023/04/12 07:10:11;;;;;;;2.60;1.40;;;;;;;;;;4946468;28;20049;-74
2023/04/12 07:12:37;;;;;;;2.85;1.40;;;;;;;;;;4941404;28;20071;-74
2023/04/12 07:15:04;;;;;;;3.85;1.80;;;;;;;;;;4940339;28;20047;-73
2023/04/12 07:17:30;;;;;;;5.68;1.80;;;;;;;;;;4948050;28;20530;-74
2023/04/12 07:19:56;;;;;;;3.40;1.70;;;;;;;;;;4942429;28;20544;-73
2023/04/12 07:22:23;;;;;;;4.80;1.60;;;;;;;;;;4943070;28;20047;-74
2023/04/12 07:24:50;;;;;;;3.03;1.92;;;;;;;;;;4944120;28;20118;-76
2023/04/12 07:27:16;;;;;;;2.55;1.92;;;;;;;;;;4946953;28;20055;-75
2023/04/12 07:29:43;;;;;;;2.05;1.55;;;;;;;;;;4942635;28;20106;-74
2023/04/12 07:32:09;;;;;;;2.97;1.63;;;;;;;;;;4945702;28;20492;-74
2023/04/12 07:34:36;;;;;;;2.50;1.83;;;;;;;;;;4942425;29;20300;-72
2023/04/12 07:37:03;;;;;;;4.25;1.85;;;;;;;;;;4938967;28;20507;-71
2023/04/12 07:39:30;;;;;;;3.35;2.05;;;;;;;;;;4944829;28;20456;-73
2023/04/12 07:41:56;;;;;;;2.58;1.80;;;;;;;;;;4942265;28;20316;-73
2023/04/12 07:44:23;;;;;;;3.70;1.88;;;;;;;;;;4945810;28;20054;-72
2023/04/12 07:46:49;;;;;;;5.75;1.90;;;;;;;;;;4944795;28;20047;-73
2023/04/12 07:49:15;;;;;;;2.75;1.70;;;;;;;;;;4947074;28;20054;-73
2023/04/12 07:51:42;;;;;;;5.25;2.33;;;;;;;;;;4945277;28;20460;-73
2023/04/12 07:54:08;;;;;;;6.72;2.40;;;;;;;;;;4949000;29;20134;-75
2023/04/12 07:56:35;;;;;;;4.47;2.85;;;;;;;;;;4948919;28;20126;-71
2023/04/12 07:59:01;;;;;;;4.85;2.50;;;;;;;;;;4949906;28;20055;-74
2023/04/12 08:01:28;;;;;;;5.88;2.50;;;;;;;;;;4946168;28;20732;-75
2023/04/12 08:03:54;;;;;;;5.47;2.30;;;;;;;;;;4947993;29;20086;-72
2023/04/12 08:06:21;;;;;;;8.63;2.83;;;;;;;;;;4939866;28;20212;-73
2023/04/12 08:08:48;;;;;;;5.75;2.25;;;;;;;;;;4946133;28;20055;-73
2023/04/12 08:11:14;;;;;;;6.43;2.92;;;;;;;;;;4946920;28;20040;-73
2023/04/12 08:13:40;;;;;;;6.78;2.60;;;;;;;;;;4945085;28;20047;-73
2023/04/12 08:16:07;;;;;;;4.55;2.10;;;;;;;;;;4945506;28;20047;-74
2023/04/12 08:18:34;;;;;;;5.15;2.00;;;;;;;;;;4946531;28;20055;-74
2023/04/12 08:21:01;;;;;;;7.90;2.58;;;;;;;;;;4937734;28;20219;-72
2023/04/12 08:23:27;;;;;;;5.82;2.30;;;;;;;;;;4946387;28;20048;-72
2023/04/12 08:26:01;;;;;;;7.78;2.55;;;;;;;;;;4945370;28;20047;-74
2023/04/12 08:28:28;;;;;;;6.15;2.03;;;;;;;;;;4945992;29;20053;-74
2023/04/12 08:30:55;;;;;;;9.20;2.10;;;;;;;;;;4949337;28;20056;-73
2023/04/12 08:33:21;;;;;;;8.80;2.00;;;;;;;;;;4949855;28;20063;-73
2023/04/12 08:35:48;;;;;;;7.63;1.98;;;;;;;;;;4944636;28;20051;-74
2023/04/12 08:38:15;;;;;;;8.43;1.90;;;;;;;;;;4942312;28;20051;-74
2023/04/12 08:40:42;;;;;;;8.63;1.90;;;;;;;;;;4941451;28;20073;-75
2023/04/12 08:43:10;;;;;;;10.50;2.10;;;;;;;;;;4935832;28;20055;-74
2023/04/12 08:45:37;;;;;;;8.18;1.67;;;;;;;;;;4939144;28;20370;-71
2023/04/12 08:48:04;;;;;;;7.32;2.10;;;;;;;;;;4937826;28;20056;-71
2023/04/12 08:50:31;;;;;;;11.15;1.70;;;;;;;;;;4955823;28;20043;-71
2023/04/12 08:52:58;;;;;;;7.93;1.67;;;;;;;;;;4957926;28;20318;-73
2023/04/12 08:55:25;;;;;;;7.40;1.77;;;;;;;;;;4958619;28;20051;-72
2023/04/12 08:57:55;;;;;;;8.63;1.80;;;;;;;;;;4945263;28;20127;-73
2023/04/12 09:00:22;;;;;;;9.20;1.98;;;;;;;;;;4946366;28;20094;-75
2023/04/12 09:02:49;;;;;;;5.95;1.63;;;;;;;;;;4947724;29;20092;-74
2023/04/12 09:05:16;;;;;;;10.15;2.08;;;;;;;;;;4945071;29;20054;-75
2023/04/12 09:07:42;;;;;;;10.07;2.22;;;;;;;;;;4945955;28;20082;-73
2023/04/12 09:10:09;;;;;;;7.80;2.10;;;;;;;;;;4942967;28;20048;-73
2023/04/12 09:12:43;;;;;;;11.25;1.70;;;;;;;;;;4934160;28;20059;-74
2023/04/12 09:15:12;;;;;;;10.82;2.38;;;;;;;;;;4941308;29;20411;-75
2023/04/12 09:17:39;;;;;;;;;;;;;;;;;;4946228;28;20507;-74
2023/04/12 09:20:26;;;;;;;7.05;1.65;;;;;;;;;;4935434;29;20082;-75
2023/04/12 09:22:54;;;;;;;10.70;1.77;;;;;;;;;;4937927;28;20079;-75
2023/04/12 09:25:40;;;;;;;8.02;2.20;;;;;;;;;;4938562;28;20047;-74
2023/04/12 09:28:20;;;;;;;13.13;2.22;;;;;;;;;;4935504;29;20127;-74
2023/04/12 09:30:52;;;;;;;13.45;1.98;;;;;;;;;;4932524;29;20414;-73
2023/04/12 09:33:33;;;;;;;14.98;2.63;;;;;;;;;;4935258;28;20452;-74
2023/04/12 09:36:01;;;;;;;11.40;2.40;;;;;;;;;;4935077;28;20062;-76
2023/04/12 09:38:31;;;;;;;13.07;2.40;;;;;;;;;;4945248;28;20456;-74
2023/04/12 09:41:17;;;;;;;9.63;2.72;;;;;;;;;;4946558;28;20114;-76
2023/04/12 09:43:48;;;;;;;8.05;1.85;;;;;;;;;;4944195;29;20144;-72
2023/04/12 09:46:15;;;;;;;16.52;3.10;;;;;;;;;;4947248;28;20043;-74
2023/04/12 09:48:49;;;;;;;15.20;2.58;;;;;;;;;;4929358;29;20123;-76
2023/04/12 09:51:25;;;;;;;8.55;2.13;;;;;;;;;;4944447;28;20461;-75
2023/04/12 09:53:52;;;;;;;7.72;2.15;;;;;;;;;;4941065;29;20496;-75
2023/04/12 09:56:21;;;;;;;10.07;2.22;;;;;;;;;;4937273;28;20055;-74
2023/04/12 09:58:50;;;;;;;11.32;2.03;;;;;;;;;;4946584;28;20416;-76
2023/04/12 10:01:17;;;;;;;12.55;2.45;;;;;;;;;;4948767;28;20105;-75
2023/04/12 10:03:44;;;;;;;13.30;2.30;;;;;;;;;;4945444;28;20135;-73
2023/04/12 10:06:11;;;;;;;11.98;2.15;;;;;;;;;;4943932;28;20047;-75
2023/04/12 10:08:38;;;;;;;14.82;2.92;;;;;;;;;;4949332;28;20658;-75
2023/04/12 10:11:05;;;;;;;15.95;2.70;;;;;;;;;;4965307;28;20102;-72
2023/04/12 10:13:32;;;;;;;10.35;2.42;;;;;;;;;;4965187;28;20059;-71
2023/04/12 10:15:59;;;;;;;16.58;2.88;;;;;;;;;;4969622;28;20053;-75
2023/04/12 10:18:26;;;;;;;17.38;3.38;;;;;;;;;;4953118;29;20055;-75
2023/04/12 10:20:52;;;;;;;14.82;2.90;;;;;;;;;;4943115;28;20116;-75
2023/04/12 10:23:19;;;;;;;11.35;2.55;;;;;;;;;;4944229;29;20736;-73
2023/04/12 10:25:47;;;;;;;15.73;3.20;;;;;;;;;;4929598;29;20043;-74
2023/04/12 10:28:14;;;;;;;11.50;2.10;;;;;;;;;;4934100;29;20468;-75
2023/04/12 10:30:40;;;;;;;15.73;2.58;;;;;;;;;;4948592;29;20928;-75
2023/04/12 10:33:15;;;;;;;12.77;2.70;;;;;;;;;;4946234;28;20074;-75
2023/04/12 10:35:49;;;;;;;10.75;2.50;;;;;;;;;;4947580;29;20115;-75
2023/04/12 10:38:16;;;;;;;10.82;2.85;;;;;;;;;;4949968;28;20161;-74
2023/04/12 10:41:01;;;;;;;12.95;2.50;;;;;;;;;;4949411;29;20077;-74
2023/04/12 10:43:28;;;;;;;14.68;2.70;;;;;;;;;;4944482;28;20083;-75
2023/04/12 10:45:56;;;;;;;16.90;3.00;;;;;;;;;;4947777;28;20079;-74
2023/04/12 10:48:35;;;;;;;12.05;3.10;;;;;;;;;;4940298;28;20039;-73
2023/04/12 10:51:10;;;;;;;12.18;2.65;;;;;;;;;;4945420;28;20051;-75
2023/04/12 10:53:37;;;;;;;10.85;2.60;;;;;;;;;;4949102;29;20051;-73
2023/04/12 10:56:23;;;;;;;13.43;3.35;;;;;;;;;;4949671;28;20734;-75
2023/04/12 10:58:49;;;;;;;15.98;2.90;;;;;;;;;;4949840;28;20063;-72
2023/04/12 11:01:17;;;;;;;14.98;3.08;;;;;;;;;;4949607;29;20055;-74
2023/04/12 11:04:04;;;;;;;9.70;2.75;;;;;;;;;;4949149;28;20397;-72
2023/04/12 11:06:49;;;;;;;11.70;2.63;;;;;;;;;;4945991;29;20086;-74
2023/04/12 11:09:21;;;;;;;16.02;3.10;;;;;;;;;;4949992;29;20071;-75
2023/04/12 11:11:48;;;;;;;11.93;2.88;;;;;;;;;;4948356;28;20095;-74
2023/04/12 11:14:15;;;;;;;14.75;2.83;;;;;;;;;;4931644;29;20341;-72
2023/04/12 11:17:00;;;;;;;16.58;2.75;;;;;;;;;;4947445;29;20174;-74
2023/04/12 11:19:27;;;;;;;15.55;3.03;;;;;;;;;;4950170;28;20110;-73
2023/04/12 11:21:53;;;;;;;12.77;2.58;;;;;;;;;;4948859;29;20052;-73
2023/04/12 11:24:20;;;;;;;13.13;2.58;;;;;;;;;;4949101;28;20586;-74
2023/04/12 11:26:47;;;;;;;17.95;2.80;;;;;;;;;;4948909;28;20388;-75
2023/04/12 11:29:21;;;;;;;15.75;2.80;;;;;;;;;;4929641;28;20513;-72
2023/04/12 11:31:48;;;;;;;13.15;2.47;;;;;;;;;;4932821;29;20138;-75
2023/04/12 11:34:17;;;;;;;15.50;2.78;;;;;;;;;;4944908;28;20249;-74
2023/04/12 11:36:52;;;;;;;13.77;2.72;;;;;;;;;;4945781;29;20156;-72
2023/04/12 11:39:18;;;;;;;14.48;2.50;;;;;;;;;;4929515;28;20052;-75
2023/04/12 11:41:45;;;;;;;13.77;2.50;;;;;;;;;;4943918;28;20058;-74
2023/04/12 11:44:12;;;;;;;9.77;2.30;;;;;;;;;;4943449;29;20074;-75
2023/04/12 11:46:38;;;;;;;11.27;2.72;;;;;;;;;;4936910;29;20054;-75
2023/04/12 11:49:05;;;;;;;15.48;2.88;;;;;;;;;;4934161;28;20167;-74
2023/04/12 11:51:32;;;;;;;11.15;3.08;;;;;;;;;;4946971;28;20457;-74
2023/04/12 11:53:59;;;;;;;13.52;2.45;;;;;;;;;;4937341;28;20710;-74
2023/04/12 11:56:27;;;;;;;13.27;2.95;;;;;;;;;;4940248;28;20385;-76
2023/04/12 11:58:53;;;;;;;18.83;4.85;;;;;;;;;;4918324;29;20062;-75
2023/04/12 12:01:21;;;;;;;13.88;2.97;;;;;;;;;;4946854;28;20166;-74
2023/04/12 12:03:48;;;;;;;15.80;3.08;;;;;;;;;;4948260;29;20395;-75
2023/04/12 12:06:15;;;;;;;17.10;3.53;;;;;;;;;;4936366;28;20218;-74
2023/04/12 12:08:42;;;;;;;11.57;2.10;;;;;;;;;;4930414;29;20115;-74
2023/04/12 12:11:08;;;;;;;14.57;3.08;;;;;;;;;;4947394;28;20054;-75
2023/04/12 12:13:51;;;;;;;11.68;2.13;;;;;;;;;;4926812;29;20521;-73
2023/04/12 12:16:22;;;;;;;19.92;3.42;;;;;;;;;;4941398;29;20050;-75
2023/04/12 12:18:49;;;;;;;13.15;2.60;;;;;;;;;;4929167;29;20416;-74
2023/04/12 12:21:18;;;;;;;14.02;2.17;;;;;;;;;;4932616;28;20047;-75
2023/04/12 12:23:45;;;;;;;12.10;2.30;;;;;;;;;;4934314;29;20371;-75
2023/04/12 12:26:19;;;;;;;9.50;1.73;;;;;;;;;;4941125;28;20075;-76
2023/04/12 12:28:56;;;;;;;13.98;3.17;;;;;;;;;;4928666;29;20047;-75
2023/04/12 12:31:24;;;;;;;10.55;2.63;;;;;;;;;;4942060;28;20047;-75
2023/04/12 12:33:57;;;;;;;9.65;2.38;;;;;;;;;;4945246;28;20533;-75
2023/04/12 12:36:34;;;;;;;8.60;2.17;;;;;;;;;;4937869;28;20090;-76
2023/04/12 12:39:11;;;;;;;12.95;2.15;;;;;;;;;;4939549;28;20067;-75
2023/04/12 12:41:38;;;;;;;13.65;2.70;;;;;;;;;;4943057;28;20118;-73
2023/04/12 12:44:06;;;;;;;8.30;1.80;;;;;;;;;;4939215;28;20619;-76
2023/04/12 12:46:33;;;;;;;;;;;;;;;;;;4935353;28;20049;-73
2023/04/12 12:49:02;;;;;;;10.65;1.67;;;;;;;;;;4936636;29;19930;-74
2023/04/12 12:51:30;;;;;;;8.07;1.75;;;;;;;;;;4938225;29;20047;-73
2023/04/12 12:53:56;;;;;;;10.45;1.90;;;;;;;;;;4935314;28;20583;-74
2023/04/12 12:56:23;;;;;;;9.70;2.42;;;;;;;;;;4939562;28;20043;-73
2023/04/12 12:58:49;;;;;;;11.57;1.83;;;;;;;;;;4938260;28;20051;-72
2023/04/12 13:01:16;;;;;;;14.02;1.88;;;;;;;;;;4946992;28;20387;-73
2023/04/12 13:03:42;;;;;;;10.23;1.92;;;;;;;;;;4941429;28;20062;-74
2023/04/12 13:06:09;;;;;;;8.18;1.42;;;;;;;;;;4936072;28;20790;-73
2023/04/12 13:08:35;;;;;;;5.10;1.10;;;;;;;;;;4938959;29;20055;-72
2023/04/12 13:11:02;;;;;;;6.15;0.98;;;;;;;;;;4939952;28;20480;-73
2023/04/12 13:13:29;;;;;;;3.65;0.90;;;;;;;;;;4937046;28;20071;-74
2023/04/12 13:15:55;;;;;;;7.80;1.20;;;;;;;;;;4940484;28;20417;-73
2023/04/12 13:18:21;;;;;;;6.82;1.33;;;;;;;;;;4929120;29;20050;-74
2023/04/12 13:20:48;;;;;;;9.88;1.52;;;;;;;;;;4944467;29;20596;-74
2023/04/12 13:23:14;;;;;;;7.50;1.40;;;;;;;;;;4934903;28;20076;-73
2023/04/12 13:25:41;;;;;;;6.15;1.20;;;;;;;;;;4946471;28;20095;-74
2023/04/12 13:28:08;;;;;;;7.30;1.23;;;;;;;;;;4929887;29;20084;-74
2023/04/12 13:30:34;;;;;;;6.20;1.30;;;;;;;;;;4942271;28;20473;-74
2023/04/12 13:33:01;;;;;;;6.38;1.38;;;;;;;;;;4918186;29;20078;-74
2023/04/12 13:35:27;;;;;;;6.72;1.42;;;;;;;;;;4927904;29;20080;-73
2023/04/12 13:37:54;;;;;;;3.92;1.40;;;;;;;;;;4941191;29;20518;-73
2023/04/12 13:40:20;;;;;;;4.70;0.80;;;;;;;;;;4943329;28;20368;-74
2023/04/12 13:42:47;;;;;;;4.80;1.00;;;;;;;;;;4948220;29;20063;-75
2023/04/12 13:45:13;;;;;;;8.70;1.45;;;;;;;;;;4950561;28;20043;-74
2023/04/12 13:47:40;;;;;;;8.30;1.50;;;;;;;;;;4933124;29;20504;-75
2023/04/12 13:50:07;;;;;;;6.45;1.30;;;;;;;;;;4948760;28;20055;-73
2023/04/12 13:52:33;;;;;;;9.95;1.70;;;;;;;;;;4938180;28;20047;-73
2023/04/12 13:55:00;;;;;;;7.20;1.25;;;;;;;;;;4943387;28;20074;-75
2023/04/12 13:57:26;;;;;;;11.27;1.52;;;;;;;;;;4938266;28;20117;-73
2023/04/12 13:59:52;;;;;;;8.35;1.60;;;;;;;;;;4945379;29;20484;-74
2023/04/12 14:02:19;;;;;;;6.47;1.27;;;;;;;;;;4949810;29;20049;-74
2023/04/12 14:04:50;;;;;;;8.00;1.35;;;;;;;;;;4949399;29;20054;-74
2023/04/12 14:07:17;;;;;;;7.13;1.50;;;;;;;;;;4949564;29;20073;-74
2023/04/12 14:09:43;;;;;;;7.38;1.20;;;;;;;;;;4941409;28;20048;-74
2023/04/12 14:12:10;;;;;;;4.57;1.13;;;;;;;;;;4931802;29;20054;-75
2023/04/12 14:14:36;;;;;;;7.65;1.13;;;;;;;;;;4948705;28;20511;-75
2023/04/12 14:17:03;;;;;;;6.72;1.30;;;;;;;;;;4946237;29;20054;-75
2023/04/12 14:19:29;;;;;;;14.77;1.73;;;;;;;;;;4925965;28;20055;-74
2023/04/12 14:21:56;;;;;;;5.28;1.08;;;;;;;;;;4943780;28;20879;-72
2023/04/12 14:24:22;;;;;;;6.93;1.40;;;;;;;;;;4945080;29;20382;-75
2023/04/12 14:26:49;;;;;;;5.85;1.33;;;;;;;;;;4939591;29;20055;-73
2023/04/12 14:29:16;;;;;;;8.15;1.05;;;;;;;;;;4933673;29;20329;-74
2023/04/12 14:31:42;;;;;;;4.53;1.33;;;;;;;;;;4945800;28;20054;-74
2023/04/12 14:34:09;;;;;;;5.45;1.30;;;;;;;;;;4941783;29;20486;-74
2023/04/12 14:36:35;;;;;;;6.35;1.33;;;;;;;;;;4944176;29;20051;-74
2023/04/12 14:39:02;;;;;;;4.70;1.00;;;;;;;;;;4946865;28;20058;-74
2023/04/12 14:41:30;;;;;;;6.72;1.30;;;;;;;;;;4940427;29;20189;-75
2023/04/12 14:43:58;;;;;;;6.70;1.13;;;;;;;;;;4936109;28;21149;-75
2023/04/12 14:46:26;;;;;;;;;;;;;;;;;;4943812;28;20059;-75